Time;durP1;ratioP1;P1;durP2;ratioP2;P2;SDS_P1;SDS_P2;PMS_P1;PMS_P2;Temp;Humidity;BMP_temperature;BMP_pressure;BME280_temperature;BME280_humidity;BME280_pressure;Samples;Min_cycle;Max_cycle;Signal;HPM_P1;HPM_P2
2021/05/09 00:00:35;;;;;;;2.38;1.50;;;18.80;72.00;;;;;;5093387;28;20024;-72
2021/05/09 00:03:00;;;;;;;2.70;1.45;;;18.80;72.20;;;;;;5076846;28;20028;-75
2021/05/09 00:05:26;;;;;;;4.03;1.70;;;18.80;72.20;;;;;;5073012;28;20402;-74
2021/05/09 00:07:52;;;;;;;3.67;1.30;;;18.80;72.00;;;;;;5089360;28;20040;-73
2021/05/09 00:10:19;;;;;;;4.60;1.80;;;18.80;71.80;;;;;;5081419;28;20470;-76
2021/05/09 00:12:45;;;;;;;2.58;1.35;;;18.70;71.70;;;;;;5085727;28;20070;-74
2021/05/09 00:15:12;;;;;;;2.70;1.38;;;18.70;71.50;;;;;;5093138;28;20028;-77
2021/05/09 00:17:39;;;;;;;4.15;1.63;;;18.70;71.20;;;;;;5084657;28;20028;-75
2021/05/09 00:20:07;;;;;;;2.95;1.40;;;18.80;71.10;;;;;;5073112;28;20108;-73
2021/05/09 00:22:34;;;;;;;2.65;1.55;;;18.70;71.30;;;;;;5083001;28;20609;-73
2021/05/09 00:25:00;;;;;;;4.13;1.48;;;18.70;71.00;;;;;;5092644;28;20106;-73
2021/05/09 00:27:25;;;;;;;2.67;1.50;;;18.70;71.00;;;;;;5090087;28;20028;-73
2021/05/09 00:29:51;;;;;;;3.25;1.73;;;18.70;70.90;;;;;;5092605;28;20109;-73
2021/05/09 00:32:17;;;;;;;2.90;1.42;;;18.70;71.00;;;;;;5081460;28;20032;-73
2021/05/09 00:34:42;;;;;;;3.47;1.88;;;18.70;70.90;;;;;;5072366;28;20056;-73
2021/05/09 00:37:08;;;;;;;2.72;1.60;;;18.60;70.90;;;;;;5079495;28;20036;-75
2021/05/09 00:39:33;;;;;;;2.83;1.50;;;18.60;70.80;;;;;;5090132;28;20089;-72
2021/05/09 00:42:04;;;;;;;3.22;1.67;;;18.60;70.70;;;;;;5079075;28;20054;-73
2021/05/09 00:44:30;;;;;;;4.00;1.55;;;18.60;70.80;;;;;;5079379;28;20093;-79
2021/05/09 00:46:56;;;;;;;3.25;1.50;;;18.70;70.60;;;;;;5073374;28;20099;-77
2021/05/09 00:49:22;;;;;;;2.60;1.25;;;18.60;70.70;;;;;;5085651;28;20059;-78
2021/05/09 00:51:48;;;;;;;3.30;1.40;;;18.60;70.30;;;;;;5090538;28;20031;-77
2021/05/09 00:54:21;;;;;;;5.28;1.40;;;18.60;70.40;;;;;;5092363;28;20547;-78
2021/05/09 00:56:48;;;;;;;3.38;1.42;;;18.60;70.60;;;;;;5085902;28;20036;-76
2021/05/09 00:59:15;;;;;;;3.00;1.27;;;18.60;70.70;;;;;;5072130;28;20107;-78
2021/05/09 01:01:43;;;;;;;3.05;1.20;;;18.50;70.60;;;;;;5073868;28;20028;-79
2021/05/09 01:04:13;;;;;;;2.92;1.60;;;18.50;70.60;;;;;;5080546;28;20488;-78
2021/05/09 01:06:40;;;;;;;1.92;1.38;;;18.50;70.40;;;;;;5071634;28;20032;-78
2021/05/09 01:09:06;;;;;;;2.03;1.13;;;18.50;70.40;;;;;;5079645;28;20506;-78
2021/05/09 01:11:32;;;;;;;3.22;2.17;;;18.50;70.60;;;;;;5070633;28;20017;-77
2021/05/09 01:13:57;;;;;;;2.80;1.40;;;18.50;70.20;;;;;;5077528;28;20039;-78
2021/05/09 01:16:23;;;;;;;3.13;1.45;;;18.50;70.40;;;;;;5071780;28;20027;-78
2021/05/09 01:18:49;;;;;;;2.58;1.40;;;18.50;70.30;;;;;;5085010;28;20044;-77
2021/05/09 01:21:14;;;;;;;3.47;1.50;;;18.50;70.40;;;;;;5088927;28;20491;-75
2021/05/09 01:23:40;;;;;;;5.72;2.00;;;18.40;70.30;;;;;;5091929;28;20039;-78
2021/05/09 01:26:05;;;;;;;2.30;1.70;;;18.40;70.10;;;;;;5091106;28;20581;-77
2021/05/09 01:28:31;;;;;;;4.50;1.73;;;18.40;70.10;;;;;;5071192;28;20093;-77
2021/05/09 01:30:57;;;;;;;1.90;1.50;;;18.40;70.10;;;;;;5070982;28;20423;-76
2021/05/09 01:33:22;;;;;;;3.92;1.77;;;18.40;69.40;;;;;;5088504;28;20039;-79
2021/05/09 01:35:48;;;;;;;3.70;2.00;;;18.40;69.90;;;;;;5091466;28;20481;-76
2021/05/09 01:38:13;;;;;;;3.00;1.63;;;18.40;69.50;;;;;;5088419;28;20048;-76
2021/05/09 01:40:39;;;;;;;3.05;1.67;;;18.40;69.80;;;;;;5080030;28;20024;-79
2021/05/09 01:43:05;;;;;;;3.33;1.80;;;18.40;70.00;;;;;;5084845;28;20067;-75
2021/05/09 01:45:30;;;;;;;2.50;1.15;;;18.40;69.80;;;;;;5085932;28;20055;-78
2021/05/09 01:47:56;;;;;;;3.60;1.58;;;18.40;69.40;;;;;;5076911;28;20453;-76
2021/05/09 01:50:22;;;;;;;1.45;1.10;;;18.40;69.70;;;;;;5084388;28;20103;-72
2021/05/09 01:52:48;;;;;;;2.05;1.20;;;18.40;69.90;;;;;;5077354;28;20039;-76
2021/05/09 01:55:19;;;;;;;2.50;1.45;;;18.30;69.80;;;;;;5071250;28;20025;-78
2021/05/09 01:57:45;;;;;;;3.83;1.55;;;18.40;69.40;;;;;;5082362;28;20036;-79
2021/05/09 02:00:17;;;;;;;1.98;1.38;;;18.40;69.50;;;;;;5090238;28;20107;-78
2021/05/09 02:02:43;;;;;;;2.65;1.65;;;18.40;69.70;;;;;;5089152;28;20039;-75
2021/05/09 02:05:09;;;;;;;4.50;1.63;;;18.30;69.90;;;;;;5075145;28;20400;-76
2021/05/09 02:07:35;;;;;;;4.60;1.67;;;18.30;70.40;;;;;;5077488;28;20036;-73
2021/05/09 02:10:02;;;;;;;2.78;1.40;;;18.30;69.40;;;;;;5074287;28;20020;-75
2021/05/09 02:12:28;;;;;;;1.95;1.60;;;18.30;69.70;;;;;;5079387;28;20032;-75
2021/05/09 02:14:53;;;;;;;2.55;1.30;;;18.30;69.30;;;;;;5104837;28;20031;-78
2021/05/09 02:17:20;;;;;;;2.28;1.42;;;18.30;69.60;;;;;;5082230;28;20028;-79
2021/05/09 02:19:46;;;;;;;3.58;1.85;;;18.30;69.60;;;;;;5068609;28;20028;-75
2021/05/09 02:22:12;;;;;;;3.28;1.90;;;18.30;69.30;;;;;;5088788;28;20506;-79
2021/05/09 02:24:38;;;;;;;1.95;1.10;;;18.30;69.50;;;;;;5094490;28;20104;-75
2021/05/09 02:27:03;;;;;;;3.03;1.23;;;18.30;69.70;;;;;;5075305;28;20036;-76
2021/05/09 02:29:29;;;;;;;2.25;1.48;;;18.30;69.60;;;;;;5073777;28;20029;-78
2021/05/09 02:31:55;;;;;;;3.40;1.10;;;18.20;69.10;;;;;;5080563;28;20020;-78
2021/05/09 02:34:21;;;;;;;3.00;1.25;;;18.30;69.30;;;;;;5075012;28;20024;-78
2021/05/09 02:36:46;;;;;;;2.17;1.58;;;18.30;69.20;;;;;;5076886;28;20039;-78
2021/05/09 02:39:13;;;;;;;1.80;0.95;;;18.20;69.30;;;;;;5092133;28;20063;-79
2021/05/09 02:41:38;;;;;;;2.28;1.45;;;18.20;69.10;;;;;;5091965;28;20032;-79
2021/05/09 02:44:05;;;;;;;1.95;1.15;;;18.20;69.00;;;;;;5095269;28;20028;-74
2021/05/09 02:46:30;;;;;;;3.38;1.58;;;18.20;69.20;;;;;;5090482;28;20020;-74
2021/05/09 02:48:56;;;;;;;2.22;1.25;;;18.20;69.40;;;;;;5082293;28;20432;-75
2021/05/09 02:51:22;;;;;;;2.47;1.33;;;18.20;69.40;;;;;;5077332;28;20028;-72
2021/05/09 02:53:47;;;;;;;2.20;1.25;;;18.20;69.10;;;;;;5093157;28;20031;-73
2021/05/09 02:56:13;;;;;;;3.53;1.80;;;18.20;69.20;;;;;;5091814;28;20031;-74
2021/05/09 02:58:38;;;;;;;3.38;1.45;;;18.20;69.30;;;;;;5094271;28;20442;-73
2021/05/09 03:01:04;;;;;;;2.40;1.48;;;18.20;69.30;;;;;;5075777;28;20468;-72
2021/05/09 03:03:30;;;;;;;1.58;1.20;;;18.20;69.30;;;;;;5093930;28;20098;-76
2021/05/09 03:05:55;;;;;;;1.98;1.17;;;18.20;69.30;;;;;;5094243;28;20496;-79
2021/05/09 03:08:21;;;;;;;2.90;1.27;;;18.20;69.20;;;;;;5091527;28;20036;-77
2021/05/09 03:10:47;;;;;;;2.55;1.27;;;18.10;69.20;;;;;;5079088;28;20070;-74
2021/05/09 03:13:13;;;;;;;2.20;1.02;;;18.10;69.20;;;;;;5089965;28;20043;-76
2021/05/09 03:15:38;;;;;;;2.28;1.23;;;18.20;69.30;;;;;;5085365;28;20446;-77
2021/05/09 03:18:04;;;;;;;2.55;1.45;;;18.20;69.20;;;;;;5079417;28;20032;-76
2021/05/09 03:20:30;;;;;;;2.13;1.02;;;18.10;69.00;;;;;;5073959;28;20067;-78
2021/05/09 03:22:55;;;;;;;2.67;1.58;;;18.10;69.10;;;;;;5084546;28;20444;-76
2021/05/09 03:25:21;;;;;;;3.40;1.58;;;18.10;69.10;;;;;;5085779;28;20028;-76
2021/05/09 03:27:47;;;;;;;2.67;1.40;;;18.10;69.00;;;;;;5093923;28;20024;-77
2021/05/09 03:30:13;;;;;;;4.32;1.40;;;18.10;69.10;;;;;;5090647;28;20028;-79
2021/05/09 03:32:38;;;;;;;2.55;1.13;;;18.10;69.10;;;;;;5093892;28;20103;-74
2021/05/09 03:35:07;;;;;;;1.92;1.27;;;18.10;69.00;;;;;;5092405;28;20111;-76
2021/05/09 03:37:33;;;;;;;1.90;1.33;;;18.10;69.10;;;;;;5092678;28;20492;-75
2021/05/09 03:39:59;;;;;;;2.58;1.38;;;18.10;69.00;;;;;;5092019;28;20024;-79
2021/05/09 03:42:25;;;;;;;2.20;1.38;;;18.00;69.20;;;;;;5091766;28;20032;-78
2021/05/09 03:44:50;;;;;;;2.13;1.25;;;18.10;69.30;;;;;;5093541;28;20399;-80
2021/05/09 03:47:16;;;;;;;2.58;1.10;;;18.10;69.20;;;;;;5088427;28;20020;-78
2021/05/09 03:49:42;;;;;;;3.13;1.70;;;18.10;69.30;;;;;;5090984;28;20032;-77
2021/05/09 03:52:07;;;;;;;1.63;1.13;;;18.10;69.10;;;;;;5091465;28;20488;-75
2021/05/09 03:54:33;;;;;;;2.55;1.10;;;18.00;69.10;;;;;;5088126;28;20112;-78
2021/05/09 03:56:59;;;;;;;5.60;2.15;;;18.10;69.20;;;;;;5084676;28;20051;-77
2021/05/09 03:59:24;;;;;;;1.85;1.17;;;18.00;69.10;;;;;;5082424;28;20408;-78
2021/05/09 04:01:50;;;;;;;2.80;1.23;;;18.00;69.00;;;;;;5073142;28;20019;-78
2021/05/09 04:04:16;;;;;;;3.15;1.42;;;18.00;69.00;;;;;;5072268;28;20033;-80
2021/05/09 04:06:41;;;;;;;2.13;1.10;;;18.00;69.00;;;;;;5075636;28;20031;-79
2021/05/09 04:09:08;;;;;;;2.10;1.30;;;18.00;69.00;;;;;;5078131;28;20122;-77
2021/05/09 04:11:34;;;;;;;2.17;1.30;;;18.00;69.00;;;;;;5087184;28;20964;-78
2021/05/09 04:14:00;;;;;;;3.42;1.27;;;18.00;69.00;;;;;;5071503;28;20032;-77
2021/05/09 04:16:25;;;;;;;2.85;1.08;;;18.00;69.10;;;;;;5073582;28;20032;-76
2021/05/09 04:18:51;;;;;;;2.03;1.10;;;18.00;69.30;;;;;;5078347;28;20040;-78
2021/05/09 04:21:17;;;;;;;1.92;1.23;;;18.00;69.40;;;;;;5090107;28;20046;-74
2021/05/09 04:23:42;;;;;;;4.78;1.48;;;18.00;69.30;;;;;;5091320;28;20106;-74
2021/05/09 04:26:08;;;;;;;2.25;1.02;;;18.00;69.30;;;;;;5092887;28;20107;-79
2021/05/09 04:28:34;;;;;;;2.75;1.15;;;18.00;69.30;;;;;;5077684;28;20027;-76
2021/05/09 04:30:59;;;;;;;2.55;1.10;;;18.00;69.50;;;;;;5092724;28;20032;-75
2021/05/09 04:33:26;;;;;;;1.50;0.80;;;18.00;69.50;;;;;;5091119;28;20111;-79
2021/05/09 04:35:52;;;;;;;2.58;1.50;;;18.00;69.30;;;;;;5090833;28;20051;-77
2021/05/09 04:38:18;;;;;;;2.38;1.25;;;17.90;69.30;;;;;;5089909;28;20068;-79
2021/05/09 04:40:44;;;;;;;1.58;1.10;;;17.90;69.20;;;;;;5089168;28;20439;-75
2021/05/09 04:43:12;;;;;;;2.10;1.23;;;17.90;69.30;;;;;;5092640;28;20403;-73
2021/05/09 04:45:38;;;;;;;2.17;1.23;;;17.90;69.40;;;;;;5078130;28;20480;-73
2021/05/09 04:48:05;;;;;;;2.95;1.23;;;17.90;69.30;;;;;;5087462;28;20411;-74
2021/05/09 04:50:32;;;;;;;1.33;0.90;;;17.90;69.40;;;;;;5080824;28;20020;-73
2021/05/09 04:52:57;;;;;;;3.38;1.30;;;17.90;69.90;;;;;;5089502;28;20438;-74
2021/05/09 04:55:23;;;;;;;1.63;1.02;;;17.90;69.20;;;;;;5092469;28;20055;-75
2021/05/09 04:57:49;;;;;;;4.28;1.67;;;17.90;69.00;;;;;;5089962;28;20119;-76
2021/05/09 05:00:15;;;;;;;2.13;1.17;;;17.90;69.20;;;;;;5087237;28;20032;-76
2021/05/09 05:02:45;;;;;;;2.85;1.20;;;17.90;69.30;;;;;;5083365;28;20496;-73
2021/05/09 05:05:12;;;;;;;2.55;1.17;;;17.90;69.20;;;;;;5090640;28;20020;-72
2021/05/09 05:07:37;;;;;;;1.45;0.90;;;17.90;69.40;;;;;;5091806;28;20119;-73
2021/05/09 05:10:04;;;;;;;3.38;1.25;;;17.90;69.40;;;;;;5087737;28;20103;-74
2021/05/09 05:12:30;;;;;;;1.80;1.15;;;17.90;69.40;;;;;;5071883;28;20024;-72
2021/05/09 05:14:55;;;;;;;1.85;1.08;;;17.90;69.80;;;;;;5070955;28;20020;-74
2021/05/09 05:17:21;;;;;;;2.40;1.20;;;17.80;69.60;;;;;;5080825;28;20107;-73
2021/05/09 05:19:47;;;;;;;2.10;1.23;;;17.90;69.70;;;;;;5089928;28;20080;-73
2021/05/09 05:22:13;;;;;;;2.92;1.20;;;17.90;69.60;;;;;;5082509;28;20036;-73
2021/05/09 05:24:39;;;;;;;2.38;1.35;;;17.90;69.50;;;;;;5084347;28;20036;-78
2021/05/09 05:27:05;;;;;;;2.53;1.33;;;17.90;69.40;;;;;;5091240;28;20028;-79
2021/05/09 05:29:30;;;;;;;2.45;1.30;;;17.90;69.40;;;;;;5091793;28;20020;-79
2021/05/09 05:31:56;;;;;;;1.73;1.13;;;17.90;69.50;;;;;;5090072;28;20084;-78
2021/05/09 05:34:22;;;;;;;2.33;1.13;;;17.90;69.30;;;;;;5089244;28;20039;-79
2021/05/09 05:36:47;;;;;;;1.60;0.98;;;17.90;69.60;;;;;;5090149;28;20040;-76
2021/05/09 05:39:13;;;;;;;2.50;1.60;;;17.90;69.50;;;;;;5084283;28;20046;-76
2021/05/09 05:41:39;;;;;;;1.95;1.48;;;17.90;69.40;;;;;;5074759;28;20024;-76
2021/05/09 05:44:06;;;;;;;2.30;1.20;;;17.90;69.80;;;;;;5091962;28;20099;-77
2021/05/09 05:46:32;;;;;;;2.75;1.23;;;17.90;70.10;;;;;;5088136;28;20408;-76
2021/05/09 05:48:57;;;;;;;1.73;1.25;;;17.90;70.30;;;;;;5083049;28;20024;-76
2021/05/09 05:51:23;;;;;;;3.20;1.25;;;17.90;70.50;;;;;;5071284;28;20032;-77
2021/05/09 05:53:53;;;;;;;2.55;1.30;;;17.90;70.10;;;;;;5085927;28;20070;-77
2021/05/09 05:56:19;;;;;;;3.58;1.42;;;17.90;70.60;;;;;;5091411;28;20020;-78
2021/05/09 05:58:44;;;;;;;1.73;1.05;;;17.90;71.00;;;;;;5073206;28;20033;-76
2021/05/09 06:01:10;;;;;;;1.95;1.20;;;17.90;70.80;;;;;;5069131;28;20056;-74
2021/05/09 06:03:35;;;;;;;3.22;1.25;;;17.90;70.80;;;;;;5070408;28;20024;-80
2021/05/09 06:06:01;;;;;;;3.15;1.27;;;17.90;71.00;;;;;;5070471;28;20481;-76
2021/05/09 06:08:28;;;;;;;3.50;1.27;;;17.90;71.20;;;;;;5080540;28;20139;-78
2021/05/09 06:10:54;;;;;;;2.67;1.20;;;17.90;71.00;;;;;;5069150;28;20146;-77
2021/05/09 06:13:23;;;;;;;1.95;1.30;;;18.00;71.70;;;;;;5071058;28;20024;-76
2021/05/09 06:15:50;;;;;;;2.92;1.42;;;18.00;70.60;;;;;;5086683;28;20103;-74
2021/05/09 06:18:16;;;;;;;1.30;1.00;;;18.00;70.30;;;;;;5083992;28;20123;-79
2021/05/09 06:20:42;;;;;;;2.35;1.20;;;18.10;70.50;;;;;;5068940;28;20108;-75
2021/05/09 06:23:09;;;;;;;3.03;1.10;;;18.10;70.10;;;;;;5071251;28;20029;-80
2021/05/09 06:25:35;;;;;;;2.20;1.00;;;18.20;70.20;;;;;;5069452;28;20032;-78
2021/05/09 06:28:01;;;;;;;3.25;1.08;;;18.20;70.20;;;;;;5059625;28;20486;-79
2021/05/09 06:30:27;;;;;;;1.58;1.10;;;18.30;70.20;;;;;;5064246;28;20078;-77
2021/05/09 06:32:53;;;;;;;2.20;1.00;;;18.40;70.10;;;;;;5069308;28;20430;-79
2021/05/09 06:35:18;;;;;;;8.88;1.27;;;18.40;70.10;;;;;;5078373;28;20492;-74
2021/05/09 06:37:44;;;;;;;2.10;1.08;;;18.50;71.70;;;;;;5087823;28;20109;-77
2021/05/09 06:40:11;;;;;;;8.18;1.55;;;18.60;71.10;;;;;;5078160;28;20107;-75
2021/05/09 06:42:36;;;;;;;4.40;1.75;;;18.70;72.20;;;;;;5075277;28;20046;-74
2021/05/09 06:45:11;;;;;;;6.72;1.48;;;18.70;73.60;;;;;;5071002;28;20025;-76
2021/05/09 06:47:37;;;;;;;5.03;1.15;;;18.80;74.00;;;;;;5082036;28;20024;-74
2021/05/09 06:50:02;;;;;;;3.38;1.45;;;18.90;74.50;;;;;;5073607;28;20037;-78
2021/05/09 06:52:28;;;;;;;4.38;1.15;;;18.90;74.50;;;;;;5071284;28;20047;-77
2021/05/09 06:54:54;;;;;;;4.25;1.20;;;19.00;74.70;;;;;;5068903;28;20541;-77
2021/05/09 06:57:19;;;;;;;11.43;1.67;;;19.10;74.20;;;;;;5068977;28;20078;-75
2021/05/09 06:59:45;;;;;;;7.53;1.60;;;19.10;74.50;;;;;;5068840;28;20155;-76
2021/05/09 07:02:11;;;;;;;2.88;1.27;;;19.20;73.30;;;;;;5068116;28;20095;-74
2021/05/09 07:04:37;;;;;;;2.55;1.20;;;19.40;74.20;;;;;;5069187;28;20059;-73
2021/05/09 07:07:02;;;;;;;6.78;1.35;;;19.40;73.80;;;;;;5068890;28;20465;-77
2021/05/09 07:09:28;;;;;;;2.92;1.55;;;19.50;73.00;;;;;;5067212;28;20086;-75
2021/05/09 07:11:53;;;;;;;2.95;1.20;;;19.60;73.00;;;;;;5071209;28;20032;-76
2021/05/09 07:14:19;;;;;;;4.45;1.50;;;19.60;72.30;;;;;;5072835;28;20035;-75
2021/05/09 07:16:45;;;;;;;5.07;1.40;;;19.70;72.60;;;;;;5072123;28;20108;-76
2021/05/09 07:19:11;;;;;;;2.50;1.20;;;19.80;72.30;;;;;;5068866;28;20498;-76
2021/05/09 07:21:43;;;;;;;3.95;1.25;;;19.80;71.70;;;;;;5074553;28;20476;-74
2021/05/09 07:24:09;;;;;;;8.43;1.42;;;19.90;71.30;;;;;;5082080;28;20076;-75
2021/05/09 07:26:35;;;;;;;5.82;1.35;;;20.00;71.00;;;;;;5073978;28;20123;-75
2021/05/09 07:29:01;;;;;;;8.35;1.73;;;20.10;70.70;;;;;;5073701;28;20127;-74
2021/05/09 07:31:26;;;;;;;4.15;1.13;;;20.20;71.00;;;;;;5084375;28;20032;-76
2021/05/09 07:33:52;;;;;;;2.00;0.70;;;20.30;70.90;;;;;;5076709;28;20032;-78
2021/05/09 07:36:18;;;;;;;4.88;1.10;;;20.30;70.80;;;;;;5084775;28;20032;-77
2021/05/09 07:38:44;;;;;;;5.72;1.30;;;20.40;70.00;;;;;;5078643;28;20028;-76
2021/05/09 07:41:09;;;;;;;4.32;0.90;;;20.50;70.50;;;;;;5073116;28;20055;-76
2021/05/09 07:43:35;;;;;;;2.85;1.00;;;20.60;69.80;;;;;;5071948;28;20036;-76
2021/05/09 07:46:01;;;;;;;2.92;1.20;;;20.60;69.50;;;;;;5073200;28;20028;-79
2021/05/09 07:48:26;;;;;;;4.22;1.02;;;20.60;69.50;;;;;;5060116;28;20386;-78
2021/05/09 07:50:52;;;;;;;1.65;1.00;;;20.70;69.30;;;;;;5085902;28;20123;-78
2021/05/09 07:53:18;;;;;;;4.63;1.05;;;20.70;69.20;;;;;;5079545;28;20024;-79
2021/05/09 07:55:44;;;;;;;4.22;1.10;;;20.70;69.40;;;;;;5070922;28;20032;-78
2021/05/09 07:58:19;;;;;;;7.15;1.00;;;20.70;69.10;;;;;;5074612;28;20032;-77
2021/05/09 08:00:45;;;;;;;3.95;1.70;;;20.80;69.00;;;;;;5078596;28;20023;-79
2021/05/09 08:03:11;;;;;;;9.05;1.67;;;;;;;;;;5082277;28;20032;-77
2021/05/09 08:05:38;;;;;;;3.95;1.17;;;;;;;;;;5078999;28;20062;-75
2021/05/09 08:08:04;;;;;;;2.88;1.35;;;;;;;;;;5075938;28;20037;-76
2021/05/09 08:10:35;;;;;;;3.03;1.08;;;;;;;;;;5073928;28;20024;-76
2021/05/09 08:13:01;;;;;;;1.77;1.05;;;;;;;;;;5075846;28;20070;-77
2021/05/09 08:15:27;;;;;;;5.05;1.38;;;;;;;;;;5071974;28;20393;-76
2021/05/09 08:17:54;;;;;;;2.65;1.08;;;;;;;;;;5071705;28;20025;-74
2021/05/09 08:20:20;;;;;;;4.93;1.20;;;;;;;;;;5088968;28;20051;-73
2021/05/09 08:22:47;;;;;;;4.57;1.70;;;;;;;;;;5077970;28;20027;-75
2021/05/09 08:25:14;;;;;;;8.82;1.98;;;;;;;;;;5075692;28;20133;-74
2021/05/09 08:27:40;;;;;;;4.65;1.40;;;;;;;;;;5071442;28;20024;-74
2021/05/09 08:30:07;;;;;;;6.70;1.20;;;;;;;;;;5075534;28;20035;-73
2021/05/09 08:32:33;;;;;;;4.22;1.23;;;;;;;;;;5079052;28;20035;-74
2021/05/09 08:35:00;;;;;;;2.05;1.20;;;;;;;;;;5069927;28;20029;-73
2021/05/09 08:37:26;;;;;;;4.45;1.17;;;;;;;;;;5080045;28;20046;-74
2021/05/09 08:39:52;;;;;;;2.25;1.30;;;;;;;;;;5083879;28;20052;-75
2021/05/09 08:42:19;;;;;;;2.35;1.17;;;;;;;;;;5084200;28;20024;-76
2021/05/09 08:44:45;;;;;;;5.32;3.15;;;;;;;;;;5070763;28;20028;-73
2021/05/09 08:47:11;;;;;;;24.60;22.08;;;;;;;;;;5070168;28;20044;-74
2021/05/09 08:49:41;;;;;;;23.23;16.42;;;;;;;;;;5069315;28;20028;-73
2021/05/09 08:52:07;;;;;;;16.63;13.55;;;;;;;;;;5070514;28;20054;-74
2021/05/09 08:54:33;;;;;;;15.60;12.45;;;;;;;;;;5069894;28;20460;-74
2021/05/09 08:57:01;;;;;;;19.17;11.52;;;;;;;;;;5070039;28;20172;-74
2021/05/09 08:59:27;;;;;;;16.20;11.85;;;;;;;;;;5071553;28;20032;-75
2021/05/09 09:01:53;;;;;;;16.95;10.93;;;20.80;67.80;;;;;;5071369;28;20083;-76
2021/05/09 09:04:19;;;;;;;17.73;11.18;;;20.80;68.70;;;;;;5070718;28;20060;-76
2021/05/09 09:06:48;;;;;;;13.05;9.60;;;20.80;68.80;;;;;;5070695;28;20070;-76
2021/05/09 09:09:21;;;;;;;10.48;7.50;;;20.70;68.70;;;;;;5069784;28;20035;-75
2021/05/09 09:11:57;;;;;;;11.60;6.43;;;20.70;68.90;;;;;;5070698;28;20028;-75
2021/05/09 09:14:27;;;;;;;13.43;7.10;;;20.70;68.70;;;;;;5070224;28;20083;-75
2021/05/09 09:17:13;;;;;;;10.32;5.93;;;20.80;68.60;;;;;;5070724;28;20077;-74
2021/05/09 09:20:03;;;;;;;9.85;5.32;;;20.80;68.30;;;;;;5069795;28;20071;-74
2021/05/09 09:22:49;;;;;;;7.53;4.35;;;20.80;68.20;;;;;;5070061;28;20501;-76
2021/05/09 09:25:15;;;;;;;7.00;4.57;;;;;;;;;;5068939;28;20021;-74
2021/05/09 09:27:45;;;;;;;9.98;5.15;;;20.80;68.20;;;;;;5069855;28;20112;-74
2021/05/09 09:30:12;;;;;;;7.75;4.47;;;20.80;67.50;;;;;;5064056;28;20025;-74
2021/05/09 09:32:38;;;;;;;10.95;3.42;;;20.80;68.00;;;;;;5070156;28;20029;-75
2021/05/09 09:35:04;;;;;;;6.05;3.80;;;20.70;68.00;;;;;;5070732;28;20511;-75
2021/05/09 09:37:34;;;;;;;5.53;3.80;;;20.70;68.10;;;;;;5070078;28;20074;-75
2021/05/09 09:40:02;;;;;;;6.10;3.78;;;20.70;68.30;;;;;;5069663;28;21683;-75
2021/05/09 09:42:47;;;;;;;6.05;3.63;;;20.70;68.30;;;;;;5070252;28;20024;-76
2021/05/09 09:45:28;;;;;;;4.45;3.33;;;20.70;68.40;;;;;;5070880;28;20025;-74
2021/05/09 09:48:02;;;;;;;4.00;2.72;;;20.70;68.30;;;;;;5069747;28;20039;-75
2021/05/09 09:50:42;;;;;;;6.10;3.13;;;20.70;68.20;;;;;;5070035;28;20060;-75
2021/05/09 09:53:42;;;;;;;6.60;2.38;;;20.70;68.20;;;;;;5070607;28;20062;-76
2021/05/09 09:56:12;;;;;;;5.18;2.42;;;20.70;68.00;;;;;;5070680;28;20570;-74
2021/05/09 09:58:57;;;;;;;5.18;2.50;;;20.70;68.00;;;;;;5070746;28;20032;-74
2021/05/09 10:01:32;;;;;;;3.78;2.80;;;20.70;68.10;;;;;;5070689;28;20643;-74
2021/05/09 10:04:02;;;;;;;5.13;2.28;;;20.70;68.40;;;;;;5070941;28;20107;-74
2021/05/09 10:06:29;;;;;;;3.55;2.25;;;20.70;69.00;;;;;;5070999;28;20037;-74
2021/05/09 10:08:59;;;;;;;3.80;2.28;;;20.70;69.30;;;;;;5070685;28;20119;-75
2021/05/09 10:11:29;;;;;;;4.90;2.33;;;20.80;69.60;;;;;;5068837;28;20059;-75
2021/05/09 10:13:56;;;;;;;5.35;2.28;;;20.80;69.40;;;;;;5070392;28;20016;-76
2021/05/09 10:16:23;;;;;;;2.55;1.92;;;20.80;69.40;;;;;;5070580;28;20063;-74
2021/05/09 10:18:53;;;;;;;3.95;2.40;;;20.90;70.00;;;;;;5070246;28;20037;-75
2021/05/09 10:21:29;;;;;;;3.40;2.40;;;20.90;69.80;;;;;;5070965;28;20021;-77
2021/05/09 10:24:17;;;;;;;3.78;2.30;;;20.90;69.60;;;;;;5069939;28;20028;-76
2021/05/09 10:26:47;;;;;;;4.05;2.15;;;20.90;69.50;;;;;;5068957;28;20033;-75
2021/05/09 10:29:39;;;;;;;2.95;1.70;;;20.90;69.40;;;;;;5070783;28;20024;-75
2021/05/09 10:32:20;;;;;;;4.93;1.77;;;21.00;69.70;;;;;;5071250;28;20418;-76
2021/05/09 10:34:52;;;;;;;8.55;2.40;;;21.00;69.50;;;;;;5070001;28;20082;-75
2021/05/09 10:37:42;;;;;;;6.50;2.17;;;21.00;69.30;;;;;;5070228;28;20048;-76
2021/05/09 10:40:35;;;;;;;4.10;2.05;;;21.10;69.40;;;;;;5070358;28;20400;-75
2021/05/09 10:43:03;;;;;;;5.75;2.28;;;21.10;69.50;;;;;;5070317;28;20396;-76
2021/05/09 10:45:41;;;;;;;4.07;1.92;;;21.10;69.70;;;;;;5072243;28;20416;-75
2021/05/09 10:50:48;;;;;;;5.63;2.08;;;21.10;69.60;;;;;;5072723;28;20063;-75
2021/05/09 10:53:33;;;;;;;7.85;2.15;;;21.10;69.60;;;;;;5072426;28;20511;-76
2021/05/09 10:56:28;;;;;;;5.07;2.65;;;21.10;69.60;;;;;;5064679;28;20035;-74
2021/05/09 10:58:55;;;;;;;4.37;2.00;;;21.20;69.80;;;;;;5071621;28;20556;-73
2021/05/09 11:01:23;;;;;;;5.38;2.05;;;21.20;69.50;;;;;;5071327;28;20025;-75
2021/05/09 11:03:51;;;;;;;5.50;1.98;;;21.20;69.50;;;;;;5072957;28;20104;-73
2021/05/09 11:06:35;;;;;;;5.43;2.05;;;21.30;69.60;;;;;;5070918;28;20492;-75
2021/05/09 11:09:03;;;;;;;8.57;2.53;;;21.30;69.70;;;;;;5072460;28;20032;-72
2021/05/09 11:11:29;;;;;;;3.13;1.77;;;21.30;69.90;;;;;;5071977;28;20118;-75
2021/05/09 11:16:24;;;;;;;3.30;2.10;;;21.30;69.90;;;;;;5073803;28;20039;-75
2021/05/09 11:18:56;;;;;;;5.68;2.10;;;21.30;69.20;;;;;;5071237;28;20468;-75
2021/05/09 11:21:22;;;;;;;7.40;2.22;;;21.30;69.40;;;;;;5068536;28;20020;-74
2021/05/09 11:23:49;;;;;;;4.63;1.77;;;21.40;69.80;;;;;;5076509;28;20025;-75
2021/05/09 11:26:26;;;;;;;3.40;1.77;;;21.40;69.40;;;;;;5084215;28;20028;-75
2021/05/09 11:29:08;;;;;;;6.35;2.35;;;21.30;69.70;;;;;;5076548;28;20031;-75
2021/05/09 11:31:35;;;;;;;3.80;1.75;;;21.30;69.50;;;;;;5082911;28;20063;-76
2021/05/09 11:34:02;;;;;;;2.75;1.70;;;21.30;69.90;;;;;;5083118;28;20024;-75
2021/05/09 11:36:33;;;;;;;4.10;1.63;;;21.30;69.50;;;;;;5086412;28;20404;-75
2021/05/09 11:39:39;;;;;;;3.08;1.80;;;21.40;69.90;;;;;;5074906;28;20047;-74
2021/05/09 11:42:17;;;;;;;2.15;1.70;;;21.50;69.60;;;;;;5024629;28;20501;-75
2021/05/09 11:44:43;;;;;;;7.55;1.90;;;21.60;70.70;;;;;;5060381;28;20040;-75
2021/05/09 11:47:35;;;;;;;4.45;1.77;;;21.60;70.80;;;;;;5071779;28;20039;-76
2021/05/09 11:50:04;;;;;;;3.30;1.70;;;21.70;70.10;;;;;;5067956;28;20123;-75
2021/05/09 11:52:32;;;;;;;3.65;1.80;;;21.70;70.40;;;;;;5104563;28;20111;-76
2021/05/09 11:54:59;;;;;;;5.22;2.17;;;21.70;70.20;;;;;;5071642;28;20492;-75
2021/05/09 11:57:27;;;;;;;4.65;2.10;;;21.60;70.30;;;;;;5071129;28;20052;-75
2021/05/09 12:00:07;;;;;;;5.53;2.22;;;21.60;70.50;;;;;;5080822;28;20398;-73
2021/05/09 12:02:43;;;;;;;3.75;1.90;;;21.60;70.50;;;;;;5078699;28;20103;-75
2021/05/09 12:05:10;;;;;;;5.88;1.98;;;21.70;70.00;;;;;;5075131;28;20519;-76
2021/05/09 12:07:36;;;;;;;3.75;1.80;;;21.60;69.70;;;;;;5086827;28;20119;-79
2021/05/09 12:10:08;;;;;;;3.42;1.67;;;21.70;70.20;;;;;;5073041;28;20483;-78
2021/05/09 12:12:36;;;;;;;3.42;1.75;;;21.60;69.70;;;;;;5087254;28;20036;-78
2021/05/09 12:15:04;;;;;;;3.42;1.80;;;21.60;70.10;;;;;;5076229;28;20017;-77
2021/05/09 12:17:30;;;;;;;5.32;2.28;;;21.70;70.00;;;;;;5087221;28;20432;-77
2021/05/09 12:19:56;;;;;;;2.95;1.60;;;21.70;69.80;;;;;;5081187;28;20028;-75
2021/05/09 12:22:23;;;;;;;5.28;2.00;;;21.80;69.80;;;;;;5080030;28;20024;-74
2021/05/09 12:24:52;;;;;;;3.60;1.92;;;21.80;69.50;;;;;;5088991;28;20051;-75
2021/05/09 12:27:18;;;;;;;3.53;2.00;;;21.90;69.20;;;;;;5059886;28;20021;-78
2021/05/09 12:29:52;;;;;;;3.90;1.50;;;21.90;69.30;;;;;;5080690;28;20680;-79
2021/05/09 12:32:31;;;;;;;5.85;1.90;;;21.90;68.90;;;;;;5078994;28;20032;-78
2021/05/09 12:35:11;;;;;;;4.22;1.90;;;21.90;68.70;;;;;;5074059;28;20826;-77
2021/05/09 12:37:49;;;;;;;5.28;1.85;;;21.90;68.80;;;;;;5063848;28;20036;-75
2021/05/09 12:40:22;;;;;;;2.50;1.52;;;22.00;68.60;;;;;;5078214;28;20077;-79
2021/05/09 12:42:50;;;;;;;4.13;1.95;;;22.00;68.10;;;;;;5083255;28;20450;-77
2021/05/09 12:45:16;;;;;;;5.63;2.15;;;22.10;67.90;;;;;;5075247;28;20016;-75
2021/05/09 12:47:42;;;;;;;4.45;1.90;;;22.10;68.40;;;;;;5084554;28;20017;-77
2021/05/09 12:50:08;;;;;;;4.05;1.83;;;22.10;67.90;;;;;;5082471;28;20114;-77
2021/05/09 12:52:46;;;;;;;4.53;1.90;;;22.20;67.30;;;;;;5076060;28;20396;-77
2021/05/09 12:55:25;;;;;;;3.92;2.08;;;22.30;67.20;;;;;;5087028;28;20056;-77
2021/05/09 12:58:11;;;;;;;4.70;1.75;;;22.30;67.20;;;;;;5079742;28;20036;-76
2021/05/09 13:00:37;;;;;;;3.40;2.05;;;22.30;67.20;;;;;;5076758;28;20485;-74
2021/05/09 13:03:03;;;;;;;2.08;1.85;;;22.20;67.10;;;;;;5088244;28;20047;-75
2021/05/09 13:05:29;;;;;;;2.53;1.73;;;22.30;67.20;;;;;;5076557;28;20051;-77